Time;durP1;ratioP1;P1;durP2;ratioP2;P2;SDS_P1;SDS_P2;PMS_P1;PMS_P2;Temp;Humidity;BMP_temperature;BMP_pressure;BME280_temperature;BME280_humidity;BME280_pressure;Samples;Min_cycle;Max_cycle;Signal;HPM_P1;HPM_P2
2021/12/18 00:02:15;;;;;;;;;;;3.30;99.90;;;;;;4986359;28;20060;-69
2021/12/18 00:04:42;;;;;;;;;;;3.30;99.90;;;;;;4985414;28;20068;-69
2021/12/18 00:07:11;;;;;;;;;;;3.50;99.90;;;;;;4985182;28;21095;-69
2021/12/18 00:09:39;;;;;;;;;;;3.60;99.90;;;;;;4985376;28;20186;-69
2021/12/18 00:12:06;;;;;;;;;;;3.80;99.90;;;;;;4986346;28;20051;-69
2021/12/18 00:14:33;;;;;;;;;;;3.90;99.90;;;;;;4987015;28;21158;-69
2021/12/18 00:17:02;;;;;;;;;;;4.00;99.90;;;;;;4988642;28;21026;-69
2021/12/18 00:19:29;;;;;;;;;;;4.10;99.90;;;;;;4988452;28;21113;-69
2021/12/18 00:21:56;;;;;;;;;;;4.20;99.90;;;;;;4989054;28;20056;-69
2021/12/18 00:24:25;;;;;;;;;;;4.30;99.90;;;;;;4989513;28;20060;-69
2021/12/18 00:26:53;;;;;;;;;;;4.30;99.90;;;;;;4988563;28;21085;-69
2021/12/18 00:29:20;;;;;;;;;;;4.30;99.90;;;;;;4988427;28;20145;-69
2021/12/18 00:31:47;;;;;;;;;;;4.30;99.90;;;;;;4988878;28;20066;-69
2021/12/18 00:34:15;;;;;;;;;;;4.30;99.90;;;;;;4989157;28;21113;-69
2021/12/18 00:36:42;;;;;;;;;;;4.40;99.90;;;;;;4988668;28;20171;-69
2021/12/18 00:39:09;;;;;;;;;;;4.40;99.90;;;;;;4987432;28;20060;-69
2021/12/18 00:41:49;;;;;;;;;;;4.40;99.90;;;;;;4989540;28;20068;-69
2021/12/18 00:44:16;;;;;;;;;;;4.50;99.90;;;;;;4988879;28;21277;-69
2021/12/18 00:46:45;;;;;;;;;;;4.60;99.90;;;;;;4988240;28;20068;-69
2021/12/18 00:49:13;;;;;;;;;;;4.60;99.90;;;;;;4988121;28;20079;-69
2021/12/18 00:51:40;;;;;;;;;;;4.60;99.90;;;;;;4988620;28;20052;-69
2021/12/18 00:54:07;;;;;;;;;;;4.70;99.90;;;;;;4987980;28;20132;-69
2021/12/18 00:56:34;;;;;;;;;;;4.70;99.90;;;;;;4988046;28;20060;-69
2021/12/18 00:59:03;;;;;;;;;;;4.70;99.90;;;;;;4988023;28;20124;-69
2021/12/18 01:01:32;;;;;;;;;;;4.80;99.90;;;;;;4988317;28;20079;-69
2021/12/18 01:03:59;;;;;;;;;;;4.80;99.90;;;;;;4989050;28;20108;-69
2021/12/18 01:06:26;;;;;;;;;;;4.80;99.90;;;;;;4988982;28;20063;-69
2021/12/18 01:08:56;;;;;;;;;;;4.90;99.90;;;;;;4987257;28;20068;-69
2021/12/18 01:11:34;;;;;;;;;;;4.90;99.90;;;;;;4988624;28;20166;-69
2021/12/18 01:22:38;;;;;;;;;;;4.90;99.90;;;;;;4980965;28;20059;-69
2021/12/18 01:22:47;;;;;;;;;;;5.00;99.90;;;;;;4986631;28;20055;-69
2021/12/18 01:25:15;;;;;;;;;;;5.00;99.90;;;;;;4988065;28;20141;-69
2021/12/18 01:27:42;;;;;;;;;;;5.00;99.90;;;;;;4987442;28;20073;-69
2021/12/18 01:30:13;;;;;;;;;;;5.00;99.90;;;;;;4987147;28;20067;-69
2021/12/18 01:32:40;;;;;;;;;;;5.00;99.90;;;;;;4987566;28;20069;-69
2021/12/18 01:35:07;;;;;;;;;;;5.10;99.90;;;;;;4988185;28;20067;-69
2021/12/18 01:37:34;;;;;;;;;;;5.10;99.90;;;;;;4986826;28;20076;-69
2021/12/18 01:40:02;;;;;;;;;;;5.20;99.90;;;;;;4987958;28;20088;-69
2021/12/18 01:45:24;;;;;;;;;;;5.20;99.90;;;;;;4960117;28;20273;-69
2021/12/18 01:53:20;;;;;;;;;;;5.30;99.90;;;;;;4986675;28;20054;-69
2021/12/18 01:55:50;;;;;;;;;;;5.30;99.90;;;;;;4987030;28;20089;-69
2021/12/18 01:58:21;;;;;;;;;;;5.30;99.90;;;;;;4986938;28;20052;-69
2021/12/18 02:00:50;;;;;;;;;;;5.30;99.90;;;;;;4987486;28;20078;-69
2021/12/18 02:03:17;;;;;;;;;;;5.30;99.90;;;;;;4988165;28;21132;-69
2021/12/18 02:05:45;;;;;;;;;;;5.40;99.90;;;;;;4987030;28;21088;-69
2021/12/18 02:08:12;;;;;;;;;;;5.40;99.90;;;;;;4985691;28;20158;-70
2021/12/18 02:10:46;;;;;;;;;;;5.40;99.90;;;;;;4987514;28;20399;-69
2021/12/18 02:13:25;;;;;;;;;;;5.40;99.90;;;;;;4987710;28;20060;-69
2021/12/18 02:21:27;;;;;;;;;;;5.50;99.90;;;;;;4987001;28;20119;-69
2021/12/18 02:23:54;;;;;;;;;;;5.40;99.90;;;;;;4985860;28;20097;-69
2021/12/18 02:26:22;;;;;;;;;;;5.50;99.90;;;;;;4986882;28;21006;-69
2021/12/18 02:28:51;;;;;;;;;;;5.50;99.90;;;;;;4986092;28;20407;-69
2021/12/18 02:31:19;;;;;;;;;;;5.50;99.90;;;;;;4986922;28;20058;-69
2021/12/18 02:33:47;;;;;;;;;;;5.40;99.90;;;;;;4986831;28;20052;-69
2021/12/18 02:36:22;;;;;;;;;;;5.50;99.90;;;;;;4985779;28;20253;-69
2021/12/18 02:39:18;;;;;;;;;;;5.50;99.90;;;;;;5005158;28;20074;-69
2021/12/18 02:41:55;;;;;;;;;;;5.50;99.90;;;;;;5004558;28;20246;-69
2021/12/18 02:44:23;;;;;;;;;;;5.50;99.90;;;;;;5006927;28;20059;-69
2021/12/18 02:46:50;;;;;;;;;;;5.50;99.90;;;;;;5005387;28;20059;-69
2021/12/18 02:49:17;;;;;;;;;;;5.50;99.90;;;;;;5005363;28;20082;-68
2021/12/18 02:51:44;;;;;;;;;;;5.50;99.90;;;;;;5006051;28;20161;-69
2021/12/18 02:54:13;;;;;;;;;;;5.50;99.90;;;;;;5006486;28;20108;-69
2021/12/18 02:56:40;;;;;;;;;;;5.50;99.90;;;;;;5006199;28;20078;-69
2021/12/18 02:59:09;;;;;;;;;;;5.40;99.90;;;;;;5005290;28;20081;-69
2021/12/18 03:01:38;;;;;;;;;;;5.40;99.90;;;;;;5006799;28;20051;-69
2021/12/18 03:04:14;;;;;;;;;;;5.40;99.90;;;;;;5005915;28;21151;-69
2021/12/18 03:06:45;;;;;;;;;;;5.40;99.90;;;;;;5006005;28;20050;-69
2021/12/18 03:21:04;;;;;;;;;;;5.40;99.90;;;;;;5006172;28;20253;-69
2021/12/18 03:23:34;;;;;;;;;;;5.40;99.90;;;;;;5005461;28;20260;-69
2021/12/18 03:26:03;;;;;;;;;;;5.40;99.90;;;;;;5006621;28;20140;-69
2021/12/18 03:28:31;;;;;;;;;;;5.40;99.90;;;;;;5004821;28;20086;-69
2021/12/18 03:30:59;;;;;;;;;;;5.40;99.90;;;;;;5006224;28;20098;-69
2021/12/18 03:33:26;;;;;;;;;;;5.40;99.90;;;;;;5006274;28;21040;-69
2021/12/18 03:35:54;;;;;;;;;;;5.40;99.90;;;;;;5005479;28;20069;-69
2021/12/18 03:38:21;;;;;;;;;;;5.50;99.90;;;;;;5005705;28;20060;-69
2021/12/18 03:40:48;;;;;;;;;;;5.50;99.90;;;;;;5006564;28;20058;-69
2021/12/18 03:43:17;;;;;;;;;;;5.50;99.90;;;;;;5005663;28;20160;-69
2021/12/18 03:45:44;;;;;;;;;;;5.50;99.90;;;;;;5005447;28;20051;-69
2021/12/18 03:48:11;;;;;;;;;;;5.50;99.90;;;;;;5006326;28;20067;-69
2021/12/18 03:50:38;;;;;;;;;;;5.50;99.90;;;;;;5009713;28;20060;-69
2021/12/18 03:53:05;;;;;;;;;;;5.50;99.90;;;;;;5009773;28;20084;-69
2021/12/18 03:55:33;;;;;;;;;;;5.50;99.90;;;;;;5007907;28;21138;-69
2021/12/18 03:58:00;;;;;;;;;;;5.50;99.90;;;;;;5008605;28;21130;-69
2021/12/18 04:00:28;;;;;;;;;;;5.50;99.90;;;;;;4996570;28;20068;-69
2021/12/18 04:02:55;;;;;;;;;;;5.50;99.90;;;;;;5030004;28;20075;-69
2021/12/18 04:05:22;;;;;;;;;;;5.40;99.90;;;;;;5009763;28;21129;-68
2021/12/18 04:07:50;;;;;;;;;;;5.40;99.90;;;;;;5008817;28;20060;-69
2021/12/18 04:10:18;;;;;;;;;;;5.40;99.90;;;;;;5008953;28;20051;-69
2021/12/18 04:12:48;;;;;;;;;;;5.40;99.90;;;;;;5009115;28;20051;-69
2021/12/18 04:15:15;;;;;;;;;;;5.40;99.90;;;;;;5009858;28;21253;-68
2021/12/18 04:17:44;;;;;;;;;;;5.50;99.90;;;;;;5009569;28;21175;-69
2021/12/18 04:20:11;;;;;;;;;;;5.50;99.90;;;;;;5009759;28;21107;-69
2021/12/18 04:22:38;;;;;;;;;;;5.50;99.90;;;;;;5009674;28;20059;-69
2021/12/18 04:25:06;;;;;;;;;;;5.50;99.90;;;;;;5009303;28;20161;-69
2021/12/18 04:27:33;;;;;;;;;;;5.50;99.90;;;;;;5009404;28;20186;-69
2021/12/18 04:30:00;;;;;;;;;;;5.50;99.90;;;;;;5008787;28;21123;-69
2021/12/18 04:32:27;;;;;;;;;;;5.50;99.90;;;;;;5009549;28;20066;-70
2021/12/18 04:34:56;;;;;;;;;;;5.50;99.90;;;;;;5009263;28;21027;-69
2021/12/18 04:37:24;;;;;;;;;;;5.50;99.90;;;;;;5008903;28;20058;-69
2021/12/18 04:39:51;;;;;;;;;;;5.50;99.90;;;;;;5008458;28;20052;-69
2021/12/18 04:42:20;;;;;;;;;;;5.50;99.90;;;;;;5009666;28;21098;-69
2021/12/18 04:44:47;;;;;;;;;;;5.50;99.90;;;;;;5009243;28;20059;-69
2021/12/18 04:47:14;;;;;;;;;;;5.50;99.90;;;;;;5008940;28;20087;-70
2021/12/18 04:49:41;;;;;;;;;;;5.50;99.90;;;;;;5008603;28;20065;-69
2021/12/18 04:52:10;;;;;;;;;;;5.50;99.90;;;;;;5009011;28;20090;-69
2021/12/18 04:54:37;;;;;;;;;;;5.50;99.90;;;;;;5008403;28;20078;-69
2021/12/18 04:57:04;;;;;;;;;;;5.50;99.90;;;;;;5008464;28;20059;-69
2021/12/18 04:59:31;;;;;;;;;;;5.50;99.90;;;;;;5007583;28;20051;-69
2021/12/18 05:01:58;;;;;;;;;;;5.50;99.90;;;;;;5008634;28;21159;-69
2021/12/18 05:04:25;;;;;;;;;;;5.50;99.90;;;;;;5008530;28;21087;-69
2021/12/18 05:06:53;;;;;;;;;;;5.50;99.90;;;;;;5007834;28;20164;-69
2021/12/18 05:09:22;;;;;;;;;;;5.50;99.90;;;;;;5008393;28;20074;-69
2021/12/18 05:11:50;;;;;;;;;;;5.50;99.90;;;;;;5008632;28;20066;-69
2021/12/18 05:14:17;;;;;;;;;;;5.50;99.90;;;;;;5008911;28;21025;-69
2021/12/18 05:16:45;;;;;;;;;;;5.50;99.90;;;;;;5008144;28;21064;-69
2021/12/18 05:19:12;;;;;;;;;;;5.50;99.90;;;;;;5007725;28;20140;-69
2021/12/18 05:21:39;;;;;;;;;;;5.50;99.90;;;;;;5008796;28;21014;-69
2021/12/18 05:24:06;;;;;;;;;;;5.50;99.90;;;;;;5008087;28;21077;-69
2021/12/18 05:26:35;;;;;;;;;;;5.50;99.90;;;;;;5008107;28;20088;-69
2021/12/18 05:29:02;;;;;;;;;;;5.50;99.90;;;;;;5007505;28;20258;-69
2021/12/18 05:31:29;;;;;;;;;;;5.50;99.90;;;;;;5008075;28;21058;-69
2021/12/18 05:34:00;;;;;;;;;;;5.50;99.90;;;;;;5007806;28;20060;-69
2021/12/18 05:36:36;;;;;;;;;;;5.50;99.90;;;;;;5007507;28;20059;-69
2021/12/18 05:39:05;;;;;;;;;;;5.50;99.90;;;;;;5007603;28;21088;-70
2021/12/18 05:41:32;;;;;;;;;;;5.50;99.90;;;;;;5007583;28;20085;-69
2021/12/18 05:44:01;;;;;;;;;;;5.50;99.90;;;;;;5007572;28;21272;-69
2021/12/18 05:46:28;;;;;;;;;;;5.50;99.90;;;;;;5007133;28;20193;-69
2021/12/18 05:48:56;;;;;;;;;;;5.50;99.90;;;;;;5006395;28;20096;-70
2021/12/18 05:51:23;;;;;;;;;;;5.50;99.90;;;;;;5007544;28;21039;-69
2021/12/18 05:53:50;;;;;;;;;;;5.50;99.90;;;;;;5007620;28;20067;-69
2021/12/18 05:56:17;;;;;;;;;;;5.50;99.90;;;;;;5007423;28;20090;-69
2021/12/18 05:58:44;;;;;;;;;;;5.50;99.90;;;;;;5007273;28;21125;-69
2021/12/18 06:01:19;;;;;;;;;;;5.50;99.90;;;;;;5005675;28;21280;-69
2021/12/18 06:03:47;;;;;;;;;;;5.50;99.90;;;;;;4987674;28;20059;-69
2021/12/18 06:06:14;;;;;;;;;;;5.50;99.90;;;;;;4998098;28;20068;-69
2021/12/18 06:08:42;;;;;;;;;;;5.50;99.90;;;;;;5000614;28;20066;-71
2021/12/18 06:11:13;;;;;;;;;;;5.50;99.90;;;;;;4994767;28;20060;-70
2021/12/18 06:13:40;;;;;;;;;;;5.50;99.90;;;;;;4986803;28;20978;-70
2021/12/18 06:16:07;;;;;;;;;;;5.50;99.90;;;;;;4987962;28;20170;-69
2021/12/18 06:18:37;;;;;;;;;;;5.50;99.90;;;;;;4986921;28;20128;-69
2021/12/18 06:21:04;;;;;;;;;;;5.50;99.90;;;;;;5004995;28;20073;-69
2021/12/18 06:23:31;;;;;;;;;;;5.50;99.90;;;;;;5006949;28;20051;-69
2021/12/18 06:25:59;;;;;;;;;;;5.50;99.90;;;;;;5023769;28;20086;-69
2021/12/18 06:28:26;;;;;;;;;;;5.50;99.90;;;;;;5005855;28;20060;-69
2021/12/18 06:30:53;;;;;;;;;;;5.50;99.90;;;;;;5004828;28;20338;-69
2021/12/18 06:33:21;;;;;;;;;;;5.50;99.90;;;;;;5020135;28;21113;-69
2021/12/18 06:35:49;;;;;;;;;;;5.50;99.90;;;;;;5000094;28;20082;-69
2021/12/18 06:38:17;;;;;;;;;;;5.50;99.90;;;;;;5000653;28;20091;-69
2021/12/18 06:40:44;;;;;;;;;;;5.50;99.90;;;;;;4995120;28;21150;-69
2021/12/18 06:43:11;;;;;;;;;;;5.50;99.90;;;;;;4996833;28;20181;-69
2021/12/18 06:45:38;;;;;;;;;;;5.50;99.90;;;;;;4993618;28;21156;-69
2021/12/18 06:48:05;;;;;;;;;;;5.50;99.90;;;;;;4993456;28;20066;-69
2021/12/18 06:50:33;;;;;;;;;;;5.50;99.90;;;;;;4997696;28;20051;-69
2021/12/18 06:53:02;;;;;;;;;;;5.50;99.90;;;;;;4996610;28;20076;-69
2021/12/18 06:55:29;;;;;;;;;;;5.50;99.90;;;;;;5000878;28;20077;-69
2021/12/18 06:57:56;;;;;;;;;;;5.40;99.90;;;;;;4992821;28;20076;-68
2021/12/18 07:00:24;;;;;;;;;;;5.40;99.90;;;;;;4997742;28;20075;-69
2021/12/18 07:02:51;;;;;;;;;;;5.50;99.90;;;;;;4990983;28;20077;-68
2021/12/18 07:05:19;;;;;;;;;;;5.50;99.90;;;;;;4996861;28;21179;-68
2021/12/18 07:07:46;;;;;;;;;;;5.40;99.90;;;;;;4996434;28;21095;-68
2021/12/18 07:10:15;;;;;;;;;;;5.40;99.90;;;;;;4993063;28;20183;-69
2021/12/18 07:12:43;;;;;;;;;;;5.40;99.90;;;;;;4997560;28;20074;-69
2021/12/18 07:15:11;;;;;;;;;;;5.40;99.90;;;;;;4991564;28;20077;-68
2021/12/18 07:17:38;;;;;;;;;;;5.50;99.90;;;;;;4997679;28;20364;-70
2021/12/18 07:20:06;;;;;;;;;;;5.50;99.90;;;;;;4994877;28;21077;-70
2021/12/18 07:22:34;;;;;;;;;;;5.50;99.90;;;;;;5006557;28;20190;-72
2021/12/18 07:25:01;;;;;;;;;;;5.50;99.90;;;;;;5011491;28;20060;-70
2021/12/18 07:27:29;;;;;;;;;;;5.40;99.90;;;;;;5003807;28;20077;-70
2021/12/18 07:29:56;;;;;;;;;;;5.40;99.90;;;;;;5005122;28;20229;-71
2021/12/18 07:32:23;;;;;;;;;;;5.40;99.90;;;;;;5011438;28;20083;-71
2021/12/18 07:34:51;;;;;;;;;;;5.40;99.90;;;;;;5012666;28;20068;-72
2021/12/18 07:37:18;;;;;;;;;;;5.40;99.90;;;;;;5007852;28;20142;-71
2021/12/18 07:39:45;;;;;;;;;;;5.40;99.90;;;;;;5005147;28;20083;-71
2021/12/18 07:42:12;;;;;;;;;;;5.30;99.90;;;;;;5007526;28;20096;-73
2021/12/18 07:44:42;;;;;;;;;;;5.30;99.90;;;;;;5006621;28;20076;-76
2021/12/18 07:47:09;;;;;;;;;;;5.30;99.90;;;;;;4995251;28;20217;-71
2021/12/18 07:49:36;;;;;;;;;;;5.30;99.90;;;;;;5020662;28;20081;-71
2021/12/18 07:52:04;;;;;;;;;;;5.30;99.90;;;;;;5019305;28;20067;-71
2021/12/18 07:54:32;;;;;;;;;;;5.30;99.90;;;;;;4997104;28;20068;-71
2021/12/18 07:56:59;;;;;;;;;;;5.30;99.90;;;;;;4998632;28;20076;-71
2021/12/18 07:59:26;;;;;;;;;;;5.20;99.90;;;;;;5004722;28;20103;-71
2021/12/18 08:01:55;;;;;;;;;;;5.30;99.90;;;;;;5000173;28;20060;-71
2021/12/18 08:04:22;;;;;;;;;;;5.20;99.90;;;;;;4998007;28;20068;-72
2021/12/18 08:06:49;;;;;;;;;;;5.20;99.90;;;;;;4996696;28;20090;-71
2021/12/18 08:09:16;;;;;;;;;;;5.20;99.90;;;;;;4992966;28;21277;-71
2021/12/18 08:11:43;;;;;;;;;;;5.20;99.90;;;;;;5001907;28;20068;-71
2021/12/18 08:14:10;;;;;;;;;;;5.10;99.90;;;;;;5000869;28;21060;-71
2021/12/18 08:16:38;;;;;;;;;;;5.10;99.90;;;;;;4999290;28;20169;-71
2021/12/18 08:19:07;;;;;;;;;;;5.10;99.90;;;;;;4999292;28;20187;-71
2021/12/18 08:21:34;;;;;;;;;;;5.10;99.90;;;;;;4998718;28;20161;-71
2021/12/18 08:24:01;;;;;;;;;;;5.10;99.90;;;;;;4998225;28;20068;-71
2021/12/18 08:26:28;;;;;;;;;;;5.10;99.90;;;;;;5002199;28;20157;-72
2021/12/18 08:28:55;;;;;;;;;;;5.10;99.90;;;;;;5014013;28;20068;-72
2021/12/18 08:31:22;;;;;;;;;;;5.10;99.90;;;;;;5000299;28;20158;-72
2021/12/18 08:33:49;;;;;;;;;;;5.10;99.90;;;;;;5002697;28;20075;-71
2021/12/18 08:36:18;;;;;;;;;;;5.20;99.90;;;;;;4993568;28;20153;-71
2021/12/18 08:38:45;;;;;;;;;;;5.20;99.90;;;;;;4994495;28;21148;-69
2021/12/18 08:41:12;;;;;;;;;;;5.20;99.90;;;;;;5000576;28;20094;-71
2021/12/18 08:43:39;;;;;;;;;;;5.20;99.90;;;;;;4995159;28;20083;-71
2021/12/18 08:46:06;;;;;;;;;;;5.20;99.90;;;;;;5003531;28;20075;-71
2021/12/18 08:48:34;;;;;;;;;;;5.20;99.90;;;;;;5001398;28;20051;-69
2021/12/18 08:51:01;;;;;;;;;;;5.30;99.90;;;;;;5005141;28;20085;-69
2021/12/18 08:53:30;;;;;;;;;;;5.20;99.90;;;;;;5007506;28;21079;-69
2021/12/18 08:55:57;;;;;;;;;;;5.30;99.90;;;;;;4996850;28;20149;-71
2021/12/18 08:58:25;;;;;;;;;;;5.30;99.90;;;;;;4996233;28;20332;-71
2021/12/18 09:00:52;;;;;;;;;;;5.30;99.90;;;;;;4998669;28;21001;-71
2021/12/18 09:03:19;;;;;;;;;;;5.30;99.90;;;;;;5006641;28;20077;-71
2021/12/18 09:05:47;;;;;;;;;;;5.30;99.90;;;;;;4994031;28;20060;-71
2021/12/18 09:08:14;;;;;;;;;;;5.30;99.90;;;;;;4997909;28;20140;-71
2021/12/18 09:10:45;;;;;;;;;;;5.30;99.90;;;;;;4998259;28;21565;-72
2021/12/18 09:13:13;;;;;;;;;;;5.30;99.90;;;;;;4995911;28;21193;-71
2021/12/18 09:15:40;;;;;;;;;;;5.30;99.90;;;;;;4997495;28;20069;-71
2021/12/18 09:18:07;;;;;;;;;;;5.30;99.90;;;;;;4997857;28;20075;-71
2021/12/18 09:20:34;;;;;;;;;;;5.30;99.90;;;;;;5000046;28;20169;-71
2021/12/18 09:23:02;;;;;;;;;;;5.30;99.90;;;;;;5000160;28;20255;-71
2021/12/18 09:25:29;;;;;;;;;;;5.30;99.90;;;;;;4996910;28;20085;-70
2021/12/18 09:27:59;;;;;;;;;;;5.30;99.90;;;;;;5001666;28;20092;-72
2021/12/18 09:30:26;;;;;;;;;;;5.30;99.90;;;;;;5000092;28;20077;-72
2021/12/18 09:32:53;;;;;;;;;;;5.40;99.90;;;;;;5000771;28;20086;-72
2021/12/18 09:35:22;;;;;;;;;;;5.40;99.90;;;;;;5001774;28;20084;-73
2021/12/18 09:37:49;;;;;;;;;;;5.40;99.90;;;;;;5008372;28;20076;-69
2021/12/18 09:40:18;;;;;;;;;;;5.40;99.90;;;;;;4997952;28;20217;-70
2021/12/18 09:42:45;;;;;;;;;;;5.50;99.90;;;;;;5000279;28;20093;-70
2021/12/18 09:45:15;;;;;;;;;;;5.50;99.90;;;;;;5012551;28;20172;-69
2021/12/18 09:47:44;;;;;;;;;;;5.50;99.90;;;;;;4991908;28;20305;-69
2021/12/18 09:50:12;;;;;;;;;;;5.50;99.90;;;;;;5002384;28;20085;-69
2021/12/18 09:52:39;;;;;;;;;;;5.50;99.90;;;;;;4996460;28;20086;-69
2021/12/18 09:55:07;;;;;;;;;;;5.50;99.90;;;;;;4994865;28;21176;-69
2021/12/18 09:57:35;;;;;;;;;;;5.50;99.90;;;;;;4998546;28;20195;-69
2021/12/18 10:00:02;;;;;;;;;;;5.60;99.90;;;;;;4989411;28;20078;-69
2021/12/18 10:02:40;;;;;;;;;;;5.60;99.90;;;;;;5014236;28;20092;-70
2021/12/18 10:05:07;;;;;;;;;;;5.60;99.90;;;;;;5005664;28;20085;-70
2021/12/18 10:07:34;;;;;;;;;;;5.60;99.90;;;;;;4994873;28;21003;-69
2021/12/18 10:10:01;;;;;;;;;;;5.60;99.90;;;;;;4994802;28;20084;-70
2021/12/18 10:12:29;;;;;;;;;;;5.60;99.90;;;;;;5001035;28;21032;-69
2021/12/18 10:14:57;;;;;;;;;;;5.60;99.90;;;;;;4993063;28;20084;-69
2021/12/18 10:17:26;;;;;;;;;;;5.60;99.90;;;;;;4997277;28;20084;-69
2021/12/18 10:19:56;;;;;;;;;;;5.60;99.90;;;;;;4994867;28;21162;-69
2021/12/18 10:22:23;;;;;;;;;;;5.60;99.90;;;;;;4995489;28;20297;-69
2021/12/18 10:25:06;;;;;;;;;;;5.70;99.90;;;;;;4992384;28;20204;-69
2021/12/18 10:27:33;;;;;;;;;;;5.70;99.90;;;;;;4993320;28;20179;-69
2021/12/18 10:30:12;;;;;;;;;;;5.60;99.90;;;;;;4997252;28;20073;-69
2021/12/18 10:32:40;;;;;;;;;;;5.60;99.90;;;;;;5010755;28;20074;-69
2021/12/18 10:35:08;;;;;;;;;;;5.60;99.90;;;;;;4996575;28;20083;-69
2021/12/18 10:37:36;;;;;;;;;;;5.60;99.90;;;;;;4993919;28;20108;-69
2021/12/18 10:40:05;;;;;;;;;;;5.60;99.90;;;;;;4995699;28;20091;-69
2021/12/18 10:42:34;;;;;;;;;;;5.70;99.90;;;;;;4994642;28;20169;-69
2021/12/18 10:45:07;;;;;;;;;;;5.70;99.90;;;;;;5005170;28;20069;-70
2021/12/18 10:47:58;;;;;;;;;;;5.70;99.90;;;;;;5001647;28;20059;-69
2021/12/18 10:50:30;;;;;;;;;;;5.80;99.90;;;;;;5006079;28;21191;-69
2021/12/18 10:52:58;;;;;;;;;;;5.80;99.90;;;;;;5000285;28;20161;-69
2021/12/18 10:55:29;;;;;;;;;;;5.90;99.90;;;;;;5001927;28;21022;-69
2021/12/18 10:57:56;;;;;;;;;;;5.90;99.90;;;;;;4995864;28;21176;-69
2021/12/18 11:00:34;;;;;;;;;;;5.90;99.90;;;;;;4993911;28;20076;-69
2021/12/18 11:03:13;;;;;;;;;;;5.90;99.90;;;;;;4995476;28;20195;-70
2021/12/18 11:05:42;;;;;;;;;;;5.90;99.90;;;;;;4998796;28;20069;-69
2021/12/18 11:08:09;;;;;;;;;;;5.90;99.90;;;;;;4997863;28;21197;-69
2021/12/18 11:10:54;;;;;;;;;;;6.00;99.90;;;;;;4990775;28;20069;-69
2021/12/18 11:13:38;;;;;;;;;;;6.00;99.90;;;;;;4997114;28;21343;-69
2021/12/18 11:16:05;;;;;;;;;;;6.00;99.90;;;;;;4997409;28;20070;-69
2021/12/18 11:18:33;;;;;;;;;;;6.00;99.90;;;;;;4995224;28;20589;-69
2021/12/18 11:21:02;;;;;;;;;;;6.00;99.90;;;;;;4985686;28;21214;-69
2021/12/18 11:23:34;;;;;;;;;;;6.00;99.90;;;;;;4992112;28;20108;-69
2021/12/18 11:26:01;;;;;;;;;;;6.10;99.90;;;;;;4991598;28;20086;-67
2021/12/18 11:28:30;;;;;;;;;;;6.10;99.90;;;;;;4990560;28;20084;-69
2021/12/18 11:30:57;;;;;;;;;;;6.00;99.90;;;;;;5003557;28;21222;-69
2021/12/18 11:33:25;;;;;;;;;;;6.00;99.90;;;;;;5010233;28;20076;-69
2021/12/18 11:35:52;;;;;;;;;;;6.10;99.90;;;;;;5010013;28;20232;-70
2021/12/18 11:38:21;;;;;;;;;;;6.10;99.90;;;;;;5000213;28;20084;-69
2021/12/18 11:40:49;;;;;;;;;;;6.10;99.90;;;;;;5002840;28;20590;-69
2021/12/18 11:43:37;;;;;;;;;;;6.10;99.90;;;;;;5004948;28;20279;-69
2021/12/18 11:46:24;;;;;;;;;;;6.10;99.90;;;;;;4989727;28;20085;-69
2021/12/18 11:48:55;;;;;;;;;;;6.20;99.90;;;;;;4992393;28;21089;-69
2021/12/18 11:51:22;;;;;;;;;;;6.20;99.90;;;;;;5019443;28;20092;-69
2021/12/18 11:53:50;;;;;;;;;;;6.20;99.90;;;;;;5004337;28;20178;-69
2021/12/18 11:56:18;;;;;;;;;;;6.20;99.90;;;;;;4993964;28;20078;-69
2021/12/18 11:58:46;;;;;;;;;;;6.20;99.90;;;;;;4984869;28;20059;-69
2021/12/18 12:01:14;;;;;;;;;;;6.20;99.90;;;;;;4997004;28;21164;-69
2021/12/18 12:03:43;;;;;;;;;;;6.20;99.90;;;;;;4993934;28;20061;-69
2021/12/18 12:06:30;;;;;;;;;;;6.20;99.90;;;;;;4996142;28;20076;-69
2021/12/18 12:09:28;;;;;;;;;;;6.20;99.90;;;;;;5005396;28;20183;-69
2021/12/18 12:11:57;;;;;;;;;;;6.20;99.90;;;;;;5021906;28;20068;-69
2021/12/18 12:14:25;;;;;;;;;;;6.20;99.90;;;;;;4999109;28;21096;-69
2021/12/18 12:17:09;;;;;;;;;;;6.20;99.90;;;;;;4994785;28;20085;-69
2021/12/18 12:19:44;;;;;;;;;;;6.20;99.90;;;;;;5016016;28;20085;-69
2021/12/18 12:22:30;;;;;;;;;;;6.10;99.90;;;;;;5006114;28;20076;-69
2021/12/18 12:25:00;;;;;;;;;;;6.10;99.90;;;;;;4995141;28;20074;-69
2021/12/18 12:27:28;;;;;;;;;;;6.10;99.90;;;;;;4996757;28;20108;-69
2021/12/18 12:29:55;;;;;;;;;;;6.10;99.90;;;;;;4996949;28;20082;-69
2021/12/18 12:32:23;;;;;;;;;;;6.10;99.90;;;;;;4995291;28;20105;-69
2021/12/18 12:34:58;;;;;;;;;;;6.20;99.90;;;;;;4988697;28;20103;-69
2021/12/18 12:37:34;;;;;;;;;;;6.20;99.90;;;;;;4988832;28;21124;-69
2021/12/18 12:40:06;;;;;;;;;;;6.10;99.90;;;;;;4988487;28;20075;-69
2021/12/18 12:42:34;;;;;;;;;;;6.10;99.90;;;;;;4989561;28;21146;-69
2021/12/18 12:45:05;;;;;;;;;;;6.10;99.90;;;;;;5007961;28;20068;-69
2021/12/18 12:47:32;;;;;;;;;;;6.10;99.90;;;;;;5002096;28;20060;-69
2021/12/18 12:50:00;;;;;;;;;;;6.20;99.90;;;;;;4991944;28;20060;-69
2021/12/18 12:52:28;;;;;;;;;;;6.20;99.90;;;;;;4989412;28;20153;-69
2021/12/18 12:54:58;;;;;;;;;;;6.20;99.90;;;;;;4988696;28;20273;-70
2021/12/18 12:57:33;;;;;;;;;;;6.20;99.90;;;;;;4996542;28;20077;-69
2021/12/18 13:00:15;;;;;;;;;;;6.20;99.90;;;;;;4994308;28;21147;-69
2021/12/18 13:02:50;;;;;;;;;;;6.30;99.90;;;;;;4974855;28;20083;-69
2021/12/18 13:05:17;;;;;;;;;;;6.30;99.90;;;;;;4988812;28;20203;-69
2021/12/18 13:07:45;;;;;;;;;;;6.30;99.90;;;;;;4987643;28;20074;-69
2021/12/18 13:10:17;;;;;;;;;;;6.30;99.90;;;;;;4988463;28;20070;-69
2021/12/18 13:12:53;;;;;;;;;;;6.30;99.90;;;;;;5008731;28;20177;-69
2021/12/18 13:15:20;;;;;;;;;;;6.30;99.90;;;;;;5008874;28;20060;-69
2021/12/18 13:17:47;;;;;;;;;;;6.30;99.90;;;;;;5008057;28;20275;-69
2021/12/18 13:20:15;;;;;;;;;;;6.30;99.90;;;;;;5008075;28;20068;-69
2021/12/18 13:22:52;;;;;;;;;;;6.20;99.90;;;;;;5007540;28;20161;-69
2021/12/18 13:25:20;;;;;;;;;;;6.20;99.90;;;;;;5008824;28;20068;-69
2021/12/18 13:28:02;;;;;;;;;;;6.20;99.90;;;;;;5007659;28;20287;-69
2021/12/18 13:30:35;;;;;;;;;;;6.30;99.90;;;;;;5008622;28;20068;-69
2021/12/18 13:33:03;;;;;;;;;;;6.30;99.90;;;;;;5008031;28;20264;-69
2021/12/18 13:35:31;;;;;;;;;;;6.30;99.90;;;;;;4998655;28;20272;-70
2021/12/18 13:38:00;;;;;;;;;;;6.20;99.90;;;;;;4987847;28;20108;-69
2021/12/18 13:40:27;;;;;;;;;;;6.30;99.90;;;;;;4988277;28;20068;-69
2021/12/18 13:43:04;;;;;;;;;;;6.20;99.90;;;;;;4987957;28;20086;-69
2021/12/18 13:45:32;;;;;;;;;;;6.20;99.90;;;;;;4987156;28;20068;-69
2021/12/18 13:48:02;;;;;;;;;;;6.20;99.90;;;;;;4987439;28;20068;-69
2021/12/18 13:50:31;;;;;;;;;;;6.10;99.90;;;;;;4987802;28;20068;-69
2021/12/18 13:52:58;;;;;;;;;;;6.10;99.90;;;;;;4988040;28;20075;-69
2021/12/18 13:55:28;;;;;;;;;;;6.10;99.90;;;;;;4987245;28;20068;-69
2021/12/18 13:57:57;;;;;;;;;;;6.10;99.90;;;;;;4987867;28;21199;-69
2021/12/18 14:00:24;;;;;;;;;;;6.10;99.90;;;;;;4988214;28;20061;-69
2021/12/18 14:02:53;;;;;;;;;;;6.10;99.90;;;;;;4987254;28;20279;-69
2021/12/18 14:05:20;;;;;;;;;;;6.10;99.90;;;;;;4986620;28;20107;-69
2021/12/18 14:07:48;;;;;;;;;;;6.10;99.90;;;;;;4986667;28;21084;-69
2021/12/18 14:10:15;;;;;;;;;;;6.00;99.90;;;;;;4988175;28;20069;-69
2021/12/18 14:12:42;;;;;;;;;;;6.10;99.90;;;;;;5007275;28;20152;-69
2021/12/18 14:15:17;;;;;;;;;;;6.00;99.90;;;;;;5007835;28;20076;-69
2021/12/18 14:17:44;;;;;;;;;;;6.00;99.90;;;;;;5009030;28;20080;-68
2021/12/18 14:20:14;;;;;;;;;;;6.00;99.90;;;;;;5010872;28;20239;-68
2021/12/18 14:22:42;;;;;;;;;;;5.90;99.90;;;;;;4991918;28;20066;-72
2021/12/18 14:25:11;;;;;;;;;;;5.90;99.90;;;;;;4988133;28;20278;-69
2021/12/18 14:27:39;;;;;;;;;;;5.90;99.90;;;;;;4987308;28;20083;-69
2021/12/18 14:30:12;;;;;;;;;;;5.90;99.90;;;;;;4986942;28;20294;-69
2021/12/18 14:32:39;;;;;;;;;;;5.80;99.90;;;;;;4986641;28;20165;-70
2021/12/18 14:35:07;;;;;;;;;;;5.80;99.90;;;;;;4993098;28;20075;-70
2021/12/18 14:37:46;;;;;;;;;;;5.80;99.90;;;;;;5006767;28;20077;-70
2021/12/18 14:40:16;;;;;;;;;;;5.80;99.90;;;;;;5007721;28;20153;-69
2021/12/18 14:42:54;;;;;;;;;;;5.70;99.90;;;;;;5007149;28;21118;-70
2021/12/18 14:45:22;;;;;;;;;;;5.70;99.90;;;;;;5007546;28;20180;-71
2021/12/18 14:47:50;;;;;;;;;;;5.70;99.90;;;;;;5006899;28;20068;-70
2021/12/18 14:50:19;;;;;;;;;;;5.70;99.90;;;;;;5001320;28;20171;-70
2021/12/18 14:53:07;;;;;;;;;;;5.70;99.90;;;;;;4999414;28;20105;-70
2021/12/18 14:55:38;;;;;;;;;;;5.70;99.90;;;;;;5007411;28;21180;-68
2021/12/18 14:58:07;;;;;;;;;;;5.70;99.90;;;;;;5006733;28;20076;-70
2021/12/18 15:00:35;;;;;;;;;;;5.70;99.90;;;;;;5001687;28;20090;-68
2021/12/18 15:03:08;;;;;;;;;;;5.70;99.90;;;;;;5001675;28;20068;-68
2021/12/18 15:05:46;;;;;;;;;;;5.70;99.90;;;;;;5000583;28;20290;-70
2021/12/18 15:08:15;;;;;;;;;;;5.70;99.90;;;;;;4995119;28;20068;-70
2021/12/18 15:10:52;;;;;;;;;;;5.70;99.90;;;;;;4997325;28;20078;-69
2021/12/18 15:13:21;;;;;;;;;;;5.60;99.90;;;;;;5007505;28;20170;-70
2021/12/18 15:15:48;;;;;;;;;;;5.60;99.90;;;;;;5006854;28;20220;-70